This is the latest recevied weather packets stored in our database for station/object JA3VQW-13. If no packets are shown the sender has not sent any weather packets the latest 1 day(s).
| Time | Temp. | Humidity | Pressure | Rain* | Wind** | Luminosity | Snow |
|---|---|---|---|---|---|---|---|
| 1778060492 | 19.44° C | 47% | 1008 hPa | 0 mm | - | - | - |
| 1778060177 | 19.44° C | 47% | 1008 hPa | 0 mm | - | - | - |
| 1778056891 | 20° C | 44% | 1009 hPa | 0 mm | - | - | - |
| 1778055991 | 20.56° C | 42% | 1008 hPa | 0 mm | - | - | - |
| 1778055092 | 21.11° C | 40% | 1008 hPa | 0 mm | - | - | - |
| 1778054778 | 21.11° C | 40% | 1009 hPa | 0 mm | - | - | - |
| 1778054191 | 21.11° C | 40% | 1009 hPa | 0 mm | - | - | - |
| 1778053293 | 21.67° C | 39% | 1008 hPa | 0 mm | - | - | - |
| 1778051177 | 22.22° C | 36% | 1009 hPa | 0 mm | - | - | - |
| 1778050592 | 22.22° C | 36% | 1009 hPa | 0 mm | - | - | - |
| 1778049692 | 22.22° C | 35% | 1009 hPa | 0 mm | - | - | - |
| 1778049377 | 22.22° C | 35% | 1009 hPa | 0 mm | - | - | - |
| 1778047892 | 21.67° C | 34% | 1009 hPa | 0 mm | - | - | - |
| 1778046990 | 22.22° C | 33% | 1009 hPa | 0 mm | - | - | - |
| 1778046092 | 23.33° C | 32% | 1009 hPa | 0 mm | - | - | - |
| 1778045192 | 24.44° C | 31% | 1010 hPa | 0 mm | - | - | - |
| 1778044291 | 23.33° C | 32% | 1010 hPa | 0 mm | - | - | - |
| 1778043977 | 22.22° C | 33% | 1009 hPa | 0 mm | - | - | - |
| 1778043392 | 21.67° C | 34% | 1009 hPa | 0 mm | - | - | - |
| 1778040378 | 21.11° C | 36% | 1010 hPa | 0 mm | - | - | - |
| 1778039792 | 21.11° C | 36% | 1010 hPa | 0 mm | - | - | - |
| 1778038892 | 20.56° C | 39% | 1010 hPa | 0 mm | - | - | - |
| 1778038577 | 20° C | 41% | 1011 hPa | 0 mm | - | - | - |
| 1778037992 | 19.44° C | 43% | 1011 hPa | 0 mm | - | - | - |
| 1778034976 | 18.33° C | 45% | 1011 hPa | 0 mm | - | - | - |
* Rain latest hour (hover to see other rain measurements)
** Current wind speed in m/s (hover to see current wind gust speed)